sensor_id;sensor_type;location;lat;lon;timestamp;P1;durP1;ratioP1;P2;durP2;ratioP2
74632;SDS011;63139;52.018;8.552;2022-10-31T00:01:18;14.37;;;8.80;;
74632;SDS011;63139;52.018;8.552;2022-10-31T00:03:44;18.98;;;10.00;;
74632;SDS011;63139;52.018;8.552;2022-10-31T00:06:10;22.00;;;11.13;;
74632;SDS011;63139;52.018;8.552;2022-10-31T00:08:35;27.63;;;11.73;;
74632;SDS011;63139;52.018;8.552;2022-10-31T00:11:01;20.73;;;10.40;;
74632;SDS011;63139;52.018;8.552;2022-10-31T00:13:28;16.90;;;10.07;;
74632;SDS011;63139;52.018;8.552;2022-10-31T00:18:18;23.00;;;10.43;;
74632;SDS011;63139;52.018;8.552;2022-10-31T00:20:44;23.87;;;11.80;;
74632;SDS011;63139;52.018;8.552;2022-10-31T00:23:09;18.80;;;10.50;;
74632;SDS011;63139;52.018;8.552;2022-10-31T00:25:36;15.20;;;9.65;;
74632;SDS011;63139;52.018;8.552;2022-10-31T00:30:29;18.63;;;11.33;;
74632;SDS011;63139;52.018;8.552;2022-10-31T00:32:54;22.17;;;11.45;;
74632;SDS011;63139;52.018;8.552;2022-10-31T00:35:20;19.67;;;11.77;;
74632;SDS011;63139;52.018;8.552;2022-10-31T00:37:45;26.60;;;13.03;;
74632;SDS011;63139;52.018;8.552;2022-10-31T00:40:11;21.33;;;11.60;;
74632;SDS011;63139;52.018;8.552;2022-10-31T00:42:36;23.10;;;12.63;;
74632;SDS011;63139;52.018;8.552;2022-10-31T00:45:02;22.87;;;11.87;;
74632;SDS011;63139;52.018;8.552;2022-10-31T00:47:29;29.73;;;15.40;;
74632;SDS011;63139;52.018;8.552;2022-10-31T00:49:54;22.67;;;11.50;;
74632;SDS011;63139;52.018;8.552;2022-10-31T00:52:20;21.23;;;11.67;;
74632;SDS011;63139;52.018;8.552;2022-10-31T00:54:45;20.43;;;10.73;;
74632;SDS011;63139;52.018;8.552;2022-10-31T00:57:10;28.30;;;14.13;;
74632;SDS011;63139;52.018;8.552;2022-10-31T00:59:36;25.27;;;12.37;;
74632;SDS011;63139;52.018;8.552;2022-10-31T01:02:01;24.57;;;12.37;;
74632;SDS011;63139;52.018;8.552;2022-10-31T01:04:28;18.53;;;10.90;;
74632;SDS011;63139;52.018;8.552;2022-10-31T01:09:18;22.27;;;11.43;;
74632;SDS011;63139;52.018;8.552;2022-10-31T01:11:44;22.67;;;11.63;;
74632;SDS011;63139;52.018;8.552;2022-10-31T01:14:09;20.97;;;11.17;;
74632;SDS011;63139;52.018;8.552;2022-10-31T01:16:35;37.23;;;16.73;;
74632;SDS011;63139;52.018;8.552;2022-10-31T01:19:00;25.70;;;12.80;;
74632;SDS011;63139;52.018;8.552;2022-10-31T01:21:28;21.73;;;11.77;;
74632;SDS011;63139;52.018;8.552;2022-10-31T01:23:54;26.13;;;13.32;;
74632;SDS011;63139;52.018;8.552;2022-10-31T01:26:20;31.05;;;16.17;;
74632;SDS011;63139;52.018;8.552;2022-10-31T01:28:47;28.63;;;14.52;;
74632;SDS011;63139;52.018;8.552;2022-10-31T01:31:14;26.75;;;13.30;;
74632;SDS011;63139;52.018;8.552;2022-10-31T01:33:41;30.52;;;14.90;;
74632;SDS011;63139;52.018;8.552;2022-10-31T01:36:14;26.10;;;12.90;;
74632;SDS011;63139;52.018;8.552;2022-10-31T01:38:42;29.48;;;15.23;;
74632;SDS011;63139;52.018;8.552;2022-10-31T01:41:08;22.55;;;13.57;;
74632;SDS011;63139;52.018;8.552;2022-10-31T01:43:44;34.33;;;15.88;;
74632;SDS011;63139;52.018;8.552;2022-10-31T01:46:12;20.88;;;12.30;;
74632;SDS011;63139;52.018;8.552;2022-10-31T01:48:38;28.55;;;13.50;;
74632;SDS011;63139;52.018;8.552;2022-10-31T01:51:04;26.85;;;14.68;;
74632;SDS011;63139;52.018;8.552;2022-10-31T01:53:29;29.20;;;13.83;;
74632;SDS011;63139;52.018;8.552;2022-10-31T01:55:57;32.67;;;15.43;;
74632;SDS011;63139;52.018;8.552;2022-10-31T01:58:24;23.25;;;12.52;;
74632;SDS011;63139;52.018;8.552;2022-10-31T02:00:51;23.98;;;13.02;;
74632;SDS011;63139;52.018;8.552;2022-10-31T02:03:19;32.28;;;14.95;;
74632;SDS011;63139;52.018;8.552;2022-10-31T02:05:45;24.67;;;13.13;;
74632;SDS011;63139;52.018;8.552;2022-10-31T02:08:12;34.77;;;17.13;;
74632;SDS011;63139;52.018;8.552;2022-10-31T02:10:39;27.90;;;14.15;;
74632;SDS011;63139;52.018;8.552;2022-10-31T02:13:06;39.55;;;18.27;;
74632;SDS011;63139;52.018;8.552;2022-10-31T02:15:32;40.00;;;18.88;;
74632;SDS011;63139;52.018;8.552;2022-10-31T02:17:58;37.73;;;17.67;;
74632;SDS011;63139;52.018;8.552;2022-10-31T02:20:24;35.90;;;16.43;;
74632;SDS011;63139;52.018;8.552;2022-10-31T02:22:56;29.30;;;15.52;;
74632;SDS011;63139;52.018;8.552;2022-10-31T02:25:41;29.58;;;13.10;;
74632;SDS011;63139;52.018;8.552;2022-10-31T02:28:21;34.75;;;16.05;;
74632;SDS011;63139;52.018;8.552;2022-10-31T02:30:59;25.55;;;13.52;;
74632;SDS011;63139;52.018;8.552;2022-10-31T02:33:27;29.80;;;15.32;;
74632;SDS011;63139;52.018;8.552;2022-10-31T02:35:58;40.78;;;19.15;;
74632;SDS011;63139;52.018;8.552;2022-10-31T02:38:38;25.08;;;14.05;;
74632;SDS011;63139;52.018;8.552;2022-10-31T02:41:09;40.58;;;17.48;;
74632;SDS011;63139;52.018;8.552;2022-10-31T02:43:40;35.65;;;16.77;;
74632;SDS011;63139;52.018;8.552;2022-10-31T02:46:13;32.70;;;17.48;;
74632;SDS011;63139;52.018;8.552;2022-10-31T02:48:44;34.85;;;17.95;;
74632;SDS011;63139;52.018;8.552;2022-10-31T02:51:09;31.23;;;16.90;;
74632;SDS011;63139;52.018;8.552;2022-10-31T02:53:36;38.83;;;19.17;;
74632;SDS011;63139;52.018;8.552;2022-10-31T02:56:04;40.70;;;18.33;;
74632;SDS011;63139;52.018;8.552;2022-10-31T02:58:32;37.00;;;19.23;;
74632;SDS011;63139;52.018;8.552;2022-10-31T03:01:06;37.15;;;18.17;;
74632;SDS011;63139;52.018;8.552;2022-10-31T03:03:44;36.22;;;16.52;;
74632;SDS011;63139;52.018;8.552;2022-10-31T03:06:19;28.88;;;13.98;;
74632;SDS011;63139;52.018;8.552;2022-10-31T03:08:47;31.05;;;14.90;;
74632;SDS011;63139;52.018;8.552;2022-10-31T03:11:15;23.33;;;12.07;;
74632;SDS011;63139;52.018;8.552;2022-10-31T03:13:44;22.00;;;12.52;;
74632;SDS011;63139;52.018;8.552;2022-10-31T03:16:13;20.13;;;11.25;;
74632;SDS011;63139;52.018;8.552;2022-10-31T03:18:43;18.60;;;11.75;;
74632;SDS011;63139;52.018;8.552;2022-10-31T03:21:11;21.20;;;12.48;;
74632;SDS011;63139;52.018;8.552;2022-10-31T03:23:38;24.02;;;12.38;;
74632;SDS011;63139;52.018;8.552;2022-10-31T03:26:05;27.80;;;14.07;;
74632;SDS011;63139;52.018;8.552;2022-10-31T03:28:33;22.60;;;12.98;;
74632;SDS011;63139;52.018;8.552;2022-10-31T03:31:06;16.42;;;9.98;;
74632;SDS011;63139;52.018;8.552;2022-10-31T03:33:34;18.33;;;10.52;;
74632;SDS011;63139;52.018;8.552;2022-10-31T03:36:02;25.95;;;12.52;;
74632;SDS011;63139;52.018;8.552;2022-10-31T03:38:29;23.15;;;12.27;;
74632;SDS011;63139;52.018;8.552;2022-10-31T03:40:54;20.53;;;12.57;;
74632;SDS011;63139;52.018;8.552;2022-10-31T03:43:22;23.60;;;14.15;;
74632;SDS011;63139;52.018;8.552;2022-10-31T03:45:51;25.92;;;13.18;;
74632;SDS011;63139;52.018;8.552;2022-10-31T03:48:17;21.07;;;11.67;;
74632;SDS011;63139;52.018;8.552;2022-10-31T03:50:45;25.65;;;14.05;;
74632;SDS011;63139;52.018;8.552;2022-10-31T03:53:17;25.27;;;12.95;;
74632;SDS011;63139;52.018;8.552;2022-10-31T03:55:47;26.88;;;13.35;;
74632;SDS011;63139;52.018;8.552;2022-10-31T03:58:17;24.70;;;15.10;;
74632;SDS011;63139;52.018;8.552;2022-10-31T04:00:44;19.60;;;11.70;;
74632;SDS011;63139;52.018;8.552;2022-10-31T04:03:11;27.30;;;13.25;;
74632;SDS011;63139;52.018;8.552;2022-10-31T04:05:39;25.10;;;11.98;;
74632;SDS011;63139;52.018;8.552;2022-10-31T04:08:07;20.70;;;11.30;;
74632;SDS011;63139;52.018;8.552;2022-10-31T04:10:35;26.80;;;12.82;;
74632;SDS011;63139;52.018;8.552;2022-10-31T04:13:03;25.98;;;13.68;;
74632;SDS011;63139;52.018;8.552;2022-10-31T04:15:30;35.80;;;16.63;;
74632;SDS011;63139;52.018;8.552;2022-10-31T04:17:57;32.58;;;15.98;;
74632;SDS011;63139;52.018;8.552;2022-10-31T04:22:54;20.58;;;11.20;;
74632;SDS011;63139;52.018;8.552;2022-10-31T04:25:21;27.17;;;13.73;;
74632;SDS011;63139;52.018;8.552;2022-10-31T04:30:11;20.10;;;9.30;;
74632;SDS011;63139;52.018;8.552;2022-10-31T04:32:37;20.80;;;11.57;;
74632;SDS011;63139;52.018;8.552;2022-10-31T04:35:02;37.33;;;17.67;;
74632;SDS011;63139;52.018;8.552;2022-10-31T04:37:28;28.67;;;13.03;;
74632;SDS011;63139;52.018;8.552;2022-10-31T04:39:53;28.90;;;13.33;;
74632;SDS011;63139;52.018;8.552;2022-10-31T04:42:20;31.17;;;14.30;;
74632;SDS011;63139;52.018;8.552;2022-10-31T04:44:46;24.92;;;12.80;;
74632;SDS011;63139;52.018;8.552;2022-10-31T04:47:11;33.27;;;15.97;;
74632;SDS011;63139;52.018;8.552;2022-10-31T04:49:36;30.30;;;14.27;;
74632;SDS011;63139;52.018;8.552;2022-10-31T04:52:02;36.77;;;18.83;;
74632;SDS011;63139;52.018;8.552;2022-10-31T04:54:27;34.70;;;14.80;;
74632;SDS011;63139;52.018;8.552;2022-10-31T04:56:53;23.13;;;12.23;;
74632;SDS011;63139;52.018;8.552;2022-10-31T04:59:19;24.40;;;12.47;;
74632;SDS011;63139;52.018;8.552;2022-10-31T05:01:45;36.63;;;15.98;;
74632;SDS011;63139;52.018;8.552;2022-10-31T05:04:10;28.63;;;13.97;;
74632;SDS011;63139;52.018;8.552;2022-10-31T05:06:36;40.63;;;16.70;;
74632;SDS011;63139;52.018;8.552;2022-10-31T05:09:01;36.60;;;16.93;;
74632;SDS011;63139;52.018;8.552;2022-10-31T05:11:26;30.67;;;13.20;;
74632;SDS011;63139;52.018;8.552;2022-10-31T05:13:52;24.93;;;11.63;;
74632;SDS011;63139;52.018;8.552;2022-10-31T05:16:19;23.40;;;11.20;;
74632;SDS011;63139;52.018;8.552;2022-10-31T05:18:44;23.10;;;11.70;;
74632;SDS011;63139;52.018;8.552;2022-10-31T05:21:09;35.40;;;16.03;;
74632;SDS011;63139;52.018;8.552;2022-10-31T05:23:35;39.57;;;16.97;;
74632;SDS011;63139;52.018;8.552;2022-10-31T05:26:00;42.07;;;19.70;;
74632;SDS011;63139;52.018;8.552;2022-10-31T05:28:25;41.07;;;20.27;;
74632;SDS011;63139;52.018;8.552;2022-10-31T05:30:51;49.77;;;20.63;;
74632;SDS011;63139;52.018;8.552;2022-10-31T05:33:17;34.33;;;15.87;;
74632;SDS011;63139;52.018;8.552;2022-10-31T05:38:08;31.17;;;13.27;;
74632;SDS011;63139;52.018;8.552;2022-10-31T05:40:33;37.57;;;14.43;;
74632;SDS011;63139;52.018;8.552;2022-10-31T05:42:59;35.20;;;15.67;;
74632;SDS011;63139;52.018;8.552;2022-10-31T05:45:24;45.37;;;17.23;;
74632;SDS011;63139;52.018;8.552;2022-10-31T05:47:50;33.33;;;15.20;;
74632;SDS011;63139;52.018;8.552;2022-10-31T05:50:17;30.38;;;14.23;;
74632;SDS011;63139;52.018;8.552;2022-10-31T05:55:08;35.57;;;15.80;;
74632;SDS011;63139;52.018;8.552;2022-10-31T05:57:33;50.10;;;18.53;;
74632;SDS011;63139;52.018;8.552;2022-10-31T05:59:59;32.20;;;14.03;;
74632;SDS011;63139;52.018;8.552;2022-10-31T06:02:24;28.43;;;12.70;;
74632;SDS011;63139;52.018;8.552;2022-10-31T06:04:50;27.70;;;11.80;;
74632;SDS011;63139;52.018;8.552;2022-10-31T06:07:17;33.50;;;14.33;;
74632;SDS011;63139;52.018;8.552;2022-10-31T06:09:42;26.58;;;12.63;;
74632;SDS011;63139;52.018;8.552;2022-10-31T06:12:07;35.27;;;14.53;;
74632;SDS011;63139;52.018;8.552;2022-10-31T06:14:33;36.07;;;16.53;;
74632;SDS011;63139;52.018;8.552;2022-10-31T06:16:58;46.27;;;17.40;;
74632;SDS011;63139;52.018;8.552;2022-10-31T06:19:23;40.83;;;16.30;;
74632;SDS011;63139;52.018;8.552;2022-10-31T06:21:49;33.80;;;13.57;;
74632;SDS011;63139;52.018;8.552;2022-10-31T06:24:16;45.17;;;17.97;;
74632;SDS011;63139;52.018;8.552;2022-10-31T06:29:06;52.93;;;20.97;;
74632;SDS011;63139;52.018;8.552;2022-10-31T06:31:31;48.63;;;17.83;;
74632;SDS011;63139;52.018;8.552;2022-10-31T06:33:57;48.47;;;19.50;;
74632;SDS011;63139;52.018;8.552;2022-10-31T06:36:22;39.20;;;17.63;;
74632;SDS011;63139;52.018;8.552;2022-10-31T06:38:48;42.63;;;17.27;;
74632;SDS011;63139;52.018;8.552;2022-10-31T06:41:15;46.73;;;20.20;;
74632;SDS011;63139;52.018;8.552;2022-10-31T06:43:40;48.92;;;21.13;;
74632;SDS011;63139;52.018;8.552;2022-10-31T06:46:05;49.53;;;17.63;;
74632;SDS011;63139;52.018;8.552;2022-10-31T06:48:31;34.53;;;16.13;;
74632;SDS011;63139;52.018;8.552;2022-10-31T06:50:57;36.30;;;16.50;;
74632;SDS011;63139;52.018;8.552;2022-10-31T06:53:22;35.28;;;13.48;;
74632;SDS011;63139;52.018;8.552;2022-10-31T06:55:48;41.33;;;16.90;;
74632;SDS011;63139;52.018;8.552;2022-10-31T06:58:15;48.73;;;19.23;;
74632;SDS011;63139;52.018;8.552;2022-10-31T07:00:40;46.22;;;20.25;;
74632;SDS011;63139;52.018;8.552;2022-10-31T07:03:06;38.17;;;16.10;;
74632;SDS011;63139;52.018;8.552;2022-10-31T07:05:33;36.85;;;17.27;;
74632;SDS011;63139;52.018;8.552;2022-10-31T07:07:59;33.87;;;15.40;;
74632;SDS011;63139;52.018;8.552;2022-10-31T07:12:53;30.58;;;15.95;;
74632;SDS011;63139;52.018;8.552;2022-10-31T07:15:20;32.30;;;15.13;;
74632;SDS011;63139;52.018;8.552;2022-10-31T07:17:46;28.70;;;15.07;;
74632;SDS011;63139;52.018;8.552;2022-10-31T07:20:11;28.40;;;13.93;;
74632;SDS011;63139;52.018;8.552;2022-10-31T07:22:37;43.57;;;19.90;;
74632;SDS011;63139;52.018;8.552;2022-10-31T07:25:02;40.13;;;15.77;;
74632;SDS011;63139;52.018;8.552;2022-10-31T07:27:28;34.77;;;18.10;;
74632;SDS011;63139;52.018;8.552;2022-10-31T07:29:54;31.13;;;14.57;;
74632;SDS011;63139;52.018;8.552;2022-10-31T07:32:20;34.27;;;16.20;;
74632;SDS011;63139;52.018;8.552;2022-10-31T07:34:46;48.50;;;20.83;;
74632;SDS011;63139;52.018;8.552;2022-10-31T07:37:11;36.43;;;17.60;;
74632;SDS011;63139;52.018;8.552;2022-10-31T07:39:36;33.80;;;15.87;;
74632;SDS011;63139;52.018;8.552;2022-10-31T07:42:02;31.90;;;15.33;;
74632;SDS011;63139;52.018;8.552;2022-10-31T07:44:27;37.10;;;18.40;;
74632;SDS011;63139;52.018;8.552;2022-10-31T07:46:53;31.27;;;16.60;;
74632;SDS011;63139;52.018;8.552;2022-10-31T07:49:19;29.03;;;14.13;;
74632;SDS011;63139;52.018;8.552;2022-10-31T07:51:45;28.10;;;15.55;;
74632;SDS011;63139;52.018;8.552;2022-10-31T07:54:10;30.13;;;15.10;;
74632;SDS011;63139;52.018;8.552;2022-10-31T07:56:35;35.17;;;18.27;;
74632;SDS011;63139;52.018;8.552;2022-10-31T07:59:01;27.77;;;14.40;;
74632;SDS011;63139;52.018;8.552;2022-10-31T08:01:26;35.50;;;18.13;;
74632;SDS011;63139;52.018;8.552;2022-10-31T08:03:51;34.70;;;17.57;;
74632;SDS011;63139;52.018;8.552;2022-10-31T08:06:18;31.33;;;16.70;;
74632;SDS011;63139;52.018;8.552;2022-10-31T08:11:09;28.67;;;14.27;;
74632;SDS011;63139;52.018;8.552;2022-10-31T08:13:34;30.23;;;15.40;;
74632;SDS011;63139;52.018;8.552;2022-10-31T08:15:59;31.10;;;14.63;;
74632;SDS011;63139;52.018;8.552;2022-10-31T08:18:25;27.80;;;16.47;;
74632;SDS011;63139;52.018;8.552;2022-10-31T08:20:50;32.93;;;16.10;;
74632;SDS011;63139;52.018;8.552;2022-10-31T08:23:17;35.23;;;17.70;;
74632;SDS011;63139;52.018;8.552;2022-10-31T08:28:08;25.23;;;14.87;;
74632;SDS011;63139;52.018;8.552;2022-10-31T08:30:35;27.63;;;15.43;;
74632;SDS011;63139;52.018;8.552;2022-10-31T08:33:02;27.90;;;16.23;;
74632;SDS011;63139;52.018;8.552;2022-10-31T08:35:28;30.52;;;15.95;;
74632;SDS011;63139;52.018;8.552;2022-10-31T08:37:53;33.37;;;18.17;;
74632;SDS011;63139;52.018;8.552;2022-10-31T08:40:20;33.50;;;16.50;;
74632;SDS011;63139;52.018;8.552;2022-10-31T08:45:11;28.30;;;14.63;;
74632;SDS011;63139;52.018;8.552;2022-10-31T08:47:36;28.43;;;14.93;;
74632;SDS011;63139;52.018;8.552;2022-10-31T08:50:02;28.27;;;16.03;;
74632;SDS011;63139;52.018;8.552;2022-10-31T08:52:27;27.30;;;15.03;;
74632;SDS011;63139;52.018;8.552;2022-10-31T08:54:53;25.40;;;14.80;;
74632;SDS011;63139;52.018;8.552;2022-10-31T08:57:19;23.37;;;13.37;;
74632;SDS011;63139;52.018;8.552;2022-10-31T09:02:10;20.87;;;12.23;;
74632;SDS011;63139;52.018;8.552;2022-10-31T09:04:35;25.30;;;12.77;;
74632;SDS011;63139;52.018;8.552;2022-10-31T09:07:01;28.37;;;14.57;;
74632;SDS011;63139;52.018;8.552;2022-10-31T09:09:26;34.13;;;19.33;;
74632;SDS011;63139;52.018;8.552;2022-10-31T09:11:52;35.37;;;16.43;;
74632;SDS011;63139;52.018;8.552;2022-10-31T09:14:18;30.13;;;16.40;;
74632;SDS011;63139;52.018;8.552;2022-10-31T09:19:09;19.57;;;11.17;;
74632;SDS011;63139;52.018;8.552;2022-10-31T09:21:34;26.27;;;13.87;;
74632;SDS011;63139;52.018;8.552;2022-10-31T09:24:00;25.57;;;13.50;;
74632;SDS011;63139;52.018;8.552;2022-10-31T09:26:25;26.30;;;13.97;;
74632;SDS011;63139;52.018;8.552;2022-10-31T09:28:50;23.70;;;13.43;;
74632;SDS011;63139;52.018;8.552;2022-10-31T09:31:17;35.07;;;18.03;;
74632;SDS011;63139;52.018;8.552;2022-10-31T09:36:08;28.73;;;16.30;;
74632;SDS011;63139;52.018;8.552;2022-10-31T09:38:33;35.70;;;19.07;;
74632;SDS011;63139;52.018;8.552;2022-10-31T09:41:01;36.47;;;18.33;;
74632;SDS011;63139;52.018;8.552;2022-10-31T09:43:33;30.65;;;17.35;;
74632;SDS011;63139;52.018;8.552;2022-10-31T09:46:07;31.63;;;17.30;;
74632;SDS011;63139;52.018;8.552;2022-10-31T09:48:44;31.77;;;17.50;;
74632;SDS011;63139;52.018;8.552;2022-10-31T09:51:17;27.92;;;17.52;;
74632;SDS011;63139;52.018;8.552;2022-10-31T09:53:44;31.02;;;16.52;;
74632;SDS011;63139;52.018;8.552;2022-10-31T09:56:12;31.10;;;17.15;;
74632;SDS011;63139;52.018;8.552;2022-10-31T09:58:40;29.60;;;16.27;;
74632;SDS011;63139;52.018;8.552;2022-10-31T10:01:09;39.17;;;19.63;;
74632;SDS011;63139;52.018;8.552;2022-10-31T10:03:46;27.90;;;16.40;;
74632;SDS011;63139;52.018;8.552;2022-10-31T10:06:13;29.95;;;16.73;;
74632;SDS011;63139;52.018;8.552;2022-10-31T10:08:40;31.48;;;17.25;;
74632;SDS011;63139;52.018;8.552;2022-10-31T10:11:08;34.23;;;18.73;;
74632;SDS011;63139;52.018;8.552;2022-10-31T10:13:46;31.55;;;18.38;;
74632;SDS011;63139;52.018;8.552;2022-10-31T10:16:28;26.48;;;15.15;;
74632;SDS011;63139;52.018;8.552;2022-10-31T10:19:06;35.55;;;17.63;;
74632;SDS011;63139;52.018;8.552;2022-10-31T10:21:39;39.05;;;19.02;;
74632;SDS011;63139;52.018;8.552;2022-10-31T10:24:21;31.95;;;17.92;;
74632;SDS011;63139;52.018;8.552;2022-10-31T10:26:52;31.70;;;17.85;;
74632;SDS011;63139;52.018;8.552;2022-10-31T10:29:25;28.08;;;16.05;;
74632;SDS011;63139;52.018;8.552;2022-10-31T10:31:55;27.15;;;16.52;;
74632;SDS011;63139;52.018;8.552;2022-10-31T10:34:26;38.72;;;19.73;;
74632;SDS011;63139;52.018;8.552;2022-10-31T10:36:54;26.75;;;15.88;;
74632;SDS011;63139;52.018;8.552;2022-10-31T10:39:23;27.98;;;15.65;;
74632;SDS011;63139;52.018;8.552;2022-10-31T10:41:51;26.35;;;15.98;;
74632;SDS011;63139;52.018;8.552;2022-10-31T10:44:20;20.97;;;13.43;;
74632;SDS011;63139;52.018;8.552;2022-10-31T10:46:47;28.17;;;15.63;;
74632;SDS011;63139;52.018;8.552;2022-10-31T10:49:16;27.58;;;16.48;;
74632;SDS011;63139;52.018;8.552;2022-10-31T10:51:45;29.85;;;18.48;;
74632;SDS011;63139;52.018;8.552;2022-10-31T10:54:19;27.42;;;16.67;;
74632;SDS011;63139;52.018;8.552;2022-10-31T10:56:58;29.15;;;17.63;;
74632;SDS011;63139;52.018;8.552;2022-10-31T10:59:27;31.73;;;18.52;;
74632;SDS011;63139;52.018;8.552;2022-10-31T11:01:53;26.80;;;15.83;;
74632;SDS011;63139;52.018;8.552;2022-10-31T11:04:23;24.63;;;14.70;;
74632;SDS011;63139;52.018;8.552;2022-10-31T11:07:00;24.13;;;14.60;;
74632;SDS011;63139;52.018;8.552;2022-10-31T11:09:26;26.90;;;16.02;;
74632;SDS011;63139;52.018;8.552;2022-10-31T11:11:52;27.70;;;16.50;;
74632;SDS011;63139;52.018;8.552;2022-10-31T11:14:17;23.63;;;13.87;;
74632;SDS011;63139;52.018;8.552;2022-10-31T11:16:43;28.57;;;15.07;;
74632;SDS011;63139;52.018;8.552;2022-10-31T11:19:13;24.17;;;14.25;;
74632;SDS011;63139;52.018;8.552;2022-10-31T11:21:41;22.75;;;13.93;;
74632;SDS011;63139;52.018;8.552;2022-10-31T11:24:12;24.87;;;14.03;;
74632;SDS011;63139;52.018;8.552;2022-10-31T11:26:40;25.58;;;15.13;;
74632;SDS011;63139;52.018;8.552;2022-10-31T11:29:10;27.45;;;15.77;;
74632;SDS011;63139;52.018;8.552;2022-10-31T11:31:39;23.48;;;14.07;;
74632;SDS011;63139;52.018;8.552;2022-10-31T11:34:05;23.13;;;14.60;;
74632;SDS011;63139;52.018;8.552;2022-10-31T11:36:37;30.98;;;17.05;;
74632;SDS011;63139;52.018;8.552;2022-10-31T11:39:03;33.95;;;17.92;;
74632;SDS011;63139;52.018;8.552;2022-10-31T11:41:32;24.77;;;15.23;;
74632;SDS011;63139;52.018;8.552;2022-10-31T11:43:59;30.63;;;16.95;;
74632;SDS011;63139;52.018;8.552;2022-10-31T11:46:35;26.25;;;15.60;;
74632;SDS011;63139;52.018;8.552;2022-10-31T11:49:03;22.55;;;13.70;;
74632;SDS011;63139;52.018;8.552;2022-10-31T11:51:30;27.98;;;14.95;;
74632;SDS011;63139;52.018;8.552;2022-10-31T11:53:58;28.90;;;13.95;;
74632;SDS011;63139;52.018;8.552;2022-10-31T11:56:24;25.30;;;15.60;;
74632;SDS011;63139;52.018;8.552;2022-10-31T11:58:57;25.63;;;14.73;;
74632;SDS011;63139;52.018;8.552;2022-10-31T12:01:26;26.77;;;14.70;;
74632;SDS011;63139;52.018;8.552;2022-10-31T12:03:54;21.00;;;13.30;;
74632;SDS011;63139;52.018;8.552;2022-10-31T12:06:28;25.27;;;13.45;;
74632;SDS011;63139;52.018;8.552;2022-10-31T12:08:56;22.13;;;13.30;;
74632;SDS011;63139;52.018;8.552;2022-10-31T12:11:33;22.83;;;13.47;;
74632;SDS011;63139;52.018;8.552;2022-10-31T12:14:18;27.88;;;14.77;;
74632;SDS011;63139;52.018;8.552;2022-10-31T12:16:51;19.13;;;11.52;;
74632;SDS011;63139;52.018;8.552;2022-10-31T12:19:22;19.67;;;11.23;;
74632;SDS011;63139;52.018;8.552;2022-10-31T12:21:58;16.27;;;10.02;;
74632;SDS011;63139;52.018;8.552;2022-10-31T12:24:33;16.02;;;10.02;;
74632;SDS011;63139;52.018;8.552;2022-10-31T12:27:06;18.13;;;10.95;;
74632;SDS011;63139;52.018;8.552;2022-10-31T12:29:47;21.42;;;12.35;;
74632;SDS011;63139;52.018;8.552;2022-10-31T12:32:25;23.48;;;11.60;;
74632;SDS011;63139;52.018;8.552;2022-10-31T12:35:01;21.42;;;10.40;;
74632;SDS011;63139;52.018;8.552;2022-10-31T12:37:42;25.15;;;12.15;;
74632;SDS011;63139;52.018;8.552;2022-10-31T12:40:19;16.73;;;10.32;;
74632;SDS011;63139;52.018;8.552;2022-10-31T12:42:59;17.08;;;10.30;;
74632;SDS011;63139;52.018;8.552;2022-10-31T12:45:35;26.50;;;12.52;;
74632;SDS011;63139;52.018;8.552;2022-10-31T12:48:24;20.45;;;11.23;;
74632;SDS011;63139;52.018;8.552;2022-10-31T12:51:00;19.80;;;9.63;;
74632;SDS011;63139;52.018;8.552;2022-10-31T12:53:32;18.85;;;10.02;;
74632;SDS011;63139;52.018;8.552;2022-10-31T12:56:10;20.20;;;11.25;;
74632;SDS011;63139;52.018;8.552;2022-10-31T12:58:56;24.17;;;11.18;;
74632;SDS011;63139;52.018;8.552;2022-10-31T13:01:27;16.20;;;10.05;;
74632;SDS011;63139;52.018;8.552;2022-10-31T13:03:55;18.27;;;10.43;;
74632;SDS011;63139;52.018;8.552;2022-10-31T13:06:24;24.08;;;11.52;;
74632;SDS011;63139;52.018;8.552;2022-10-31T13:08:54;16.63;;;9.85;;
74632;SDS011;63139;52.018;8.552;2022-10-31T13:11:22;17.75;;;9.65;;
74632;SDS011;63139;52.018;8.552;2022-10-31T13:13:52;22.35;;;10.55;;
74632;SDS011;63139;52.018;8.552;2022-10-31T13:16:22;20.40;;;10.88;;
74632;SDS011;63139;52.018;8.552;2022-10-31T13:18:54;17.98;;;9.90;;
74632;SDS011;63139;52.018;8.552;2022-10-31T13:21:23;23.50;;;10.32;;
74632;SDS011;63139;52.018;8.552;2022-10-31T13:23:50;19.10;;;11.07;;
74632;SDS011;63139;52.018;8.552;2022-10-31T13:26:18;18.38;;;10.73;;
74632;SDS011;63139;52.018;8.552;2022-10-31T13:28:47;15.85;;;9.35;;
74632;SDS011;63139;52.018;8.552;2022-10-31T13:31:14;16.50;;;8.75;;
74632;SDS011;63139;52.018;8.552;2022-10-31T13:33:40;11.73;;;8.37;;
74632;SDS011;63139;52.018;8.552;2022-10-31T13:36:13;14.48;;;9.18;;
74632;SDS011;63139;52.018;8.552;2022-10-31T13:38:46;14.95;;;8.80;;
74632;SDS011;63139;52.018;8.552;2022-10-31T13:41:18;17.17;;;9.50;;
74632;SDS011;63139;52.018;8.552;2022-10-31T13:43:56;14.50;;;9.10;;
74632;SDS011;63139;52.018;8.552;2022-10-31T13:46:25;16.58;;;9.18;;
74632;SDS011;63139;52.018;8.552;2022-10-31T13:48:51;13.48;;;8.50;;
74632;SDS011;63139;52.018;8.552;2022-10-31T13:51:25;15.50;;;8.83;;
74632;SDS011;63139;52.018;8.552;2022-10-31T13:53:56;11.85;;;8.57;;
74632;SDS011;63139;52.018;8.552;2022-10-31T13:56:23;16.60;;;8.85;;
74632;SDS011;63139;52.018;8.552;2022-10-31T13:59:00;19.33;;;8.13;;
74632;SDS011;63139;52.018;8.552;2022-10-31T14:01:28;12.48;;;6.63;;
74632;SDS011;63139;52.018;8.552;2022-10-31T14:03:56;13.07;;;6.83;;
74632;SDS011;63139;52.018;8.552;2022-10-31T14:06:35;17.80;;;8.43;;
74632;SDS011;63139;52.018;8.552;2022-10-31T14:09:02;17.75;;;7.88;;
74632;SDS011;63139;52.018;8.552;2022-10-31T14:11:28;9.80;;;6.93;;
74632;SDS011;63139;52.018;8.552;2022-10-31T14:13:54;12.83;;;7.07;;
74632;SDS011;63139;52.018;8.552;2022-10-31T14:16:23;12.98;;;7.15;;
74632;SDS011;63139;52.018;8.552;2022-10-31T14:18:50;12.50;;;7.25;;
74632;SDS011;63139;52.018;8.552;2022-10-31T14:21:31;10.02;;;6.65;;
74632;SDS011;63139;52.018;8.552;2022-10-31T14:24:12;13.30;;;7.60;;
74632;SDS011;63139;52.018;8.552;2022-10-31T14:26:38;11.73;;;6.60;;
74632;SDS011;63139;52.018;8.552;2022-10-31T14:29:21;15.70;;;8.10;;
74632;SDS011;63139;52.018;8.552;2022-10-31T14:31:51;13.30;;;7.10;;
74632;SDS011;63139;52.018;8.552;2022-10-31T14:34:20;13.80;;;6.28;;
74632;SDS011;63139;52.018;8.552;2022-10-31T14:36:51;16.90;;;7.43;;
74632;SDS011;63139;52.018;8.552;2022-10-31T14:39:24;11.35;;;6.72;;
74632;SDS011;63139;52.018;8.552;2022-10-31T14:41:58;12.40;;;6.43;;
74632;SDS011;63139;52.018;8.552;2022-10-31T14:44:39;13.65;;;6.65;;
74632;SDS011;63139;52.018;8.552;2022-10-31T14:47:12;10.77;;;6.78;;
74632;SDS011;63139;52.018;8.552;2022-10-31T14:49:50;11.70;;;7.00;;
74632;SDS011;63139;52.018;8.552;2022-10-31T14:52:27;13.00;;;6.95;;
74632;SDS011;63139;52.018;8.552;2022-10-31T14:54:55;11.70;;;6.53;;
74632;SDS011;63139;52.018;8.552;2022-10-31T14:57:22;12.13;;;7.82;;
74632;SDS011;63139;52.018;8.552;2022-10-31T14:59:50;13.15;;;6.57;;
74632;SDS011;63139;52.018;8.552;2022-10-31T15:02:18;13.50;;;7.57;;
74632;SDS011;63139;52.018;8.552;2022-10-31T15:04:48;12.55;;;6.95;;
74632;SDS011;63139;52.018;8.552;2022-10-31T15:07:14;10.63;;;6.87;;